createdAt,value
2018-01-24T00:01:44.723Z,57.00
2018-01-24T00:04:12.567Z,57.10
2018-01-24T00:06:40.359Z,57.00
2018-01-24T00:09:08.145Z,57.10
2018-01-24T00:11:36.683Z,57.50
2018-01-24T00:14:04.538Z,57.50
2018-01-24T00:16:32.437Z,57.60
2018-01-24T00:19:00.316Z,57.70
2018-01-24T00:21:28.854Z,57.70
2018-01-24T00:23:56.647Z,57.60
2018-01-24T00:26:24.484Z,57.60
2018-01-24T00:28:52.310Z,57.70
2018-01-24T00:31:20.902Z,58.10
2018-01-24T00:33:48.711Z,58.00
2018-01-24T00:36:16.509Z,58.00
2018-01-24T00:38:45.175Z,57.90
2018-01-24T00:41:12.942Z,57.90
2018-01-24T00:43:40.790Z,58.00
2018-01-24T00:46:08.589Z,58.00
2018-01-24T00:48:37.222Z,58.70
2018-01-24T00:51:05.011Z,58.10
2018-01-24T00:53:32.804Z,58.10
2018-01-24T00:56:01.344Z,58.10
2018-01-24T00:58:29.116Z,58.10
2018-01-24T01:00:56.919Z,58.20
2018-01-24T01:03:25.478Z,58.10
2018-01-24T01:05:53.276Z,58.10
2018-01-24T01:08:21.896Z,57.90
2018-01-24T01:10:49.751Z,57.90
2018-01-24T01:13:17.565Z,57.90
2018-01-24T01:22:29.627Z,57.50
2018-01-24T01:24:58.299Z,57.40
2018-01-24T01:27:26.847Z,57.30
2018-01-24T01:37:22.993Z,57.10
2018-01-24T01:39:50.842Z,57.10
2018-01-24T01:42:18.702Z,57.20
2018-01-24T01:44:46.601Z,57.20
2018-01-24T01:47:14.472Z,57.00
2018-01-24T01:49:42.311Z,56.80
2018-01-24T01:52:10.275Z,56.70
2018-01-24T01:54:38.222Z,56.60
2018-01-24T01:57:06.852Z,56.10
2018-01-24T01:59:34.802Z,56.10
2018-01-24T02:02:02.583Z,55.90
2018-01-24T02:04:30.355Z,55.70
2018-01-24T02:06:58.123Z,55.60
2018-01-24T02:09:25.994Z,55.80
2018-01-24T02:11:53.907Z,56.00
2018-01-24T02:14:22.514Z,56.20
2018-01-24T02:16:50.279Z,56.20
2018-01-24T02:19:18.111Z,56.30
2018-01-24T02:21:46.724Z,56.60
2018-01-24T02:24:14.544Z,56.60
2018-01-24T02:26:42.316Z,56.60
2018-01-24T02:29:10.108Z,56.60
2018-01-24T02:31:37.929Z,56.60
2018-01-24T02:34:05.924Z,56.40
2018-01-24T02:36:34.520Z,56.00
2018-01-24T02:39:15.938Z,55.70
2018-01-24T02:41:43.775Z,55.70
2018-01-24T02:44:12.335Z,55.50
2018-01-24T02:46:40.114Z,55.50
2018-01-24T02:49:08.680Z,55.20
2018-01-24T02:51:36.484Z,55.10
2018-01-24T02:54:04.311Z,55.30
2018-01-24T03:16:44.196Z,57.40
2018-01-24T03:19:12.786Z,57.50
2018-01-24T03:21:40.579Z,57.40
2018-01-24T03:24:08.432Z,57.70
2018-01-24T03:26:36.248Z,57.80
2018-01-24T03:29:04.106Z,58.00
2018-01-24T03:31:31.886Z,58.40
2018-01-24T03:33:59.667Z,58.50
2018-01-24T03:36:27.502Z,58.60
2018-01-24T03:38:55.357Z,59.00
2018-01-24T03:41:23.141Z,58.90
2018-01-24T03:43:50.943Z,59.20
2018-01-24T03:46:19.527Z,59.40
2018-01-24T03:48:48.071Z,59.40
2018-01-24T03:51:15.874Z,59.40
2018-01-24T03:53:43.708Z,59.40
2018-01-24T03:56:11.552Z,59.30
2018-01-24T03:58:39.326Z,59.40
2018-01-24T04:01:07.119Z,59.50
2018-01-24T04:03:35.672Z,59.20
2018-01-24T04:06:03.521Z,59.20
2018-01-24T04:08:31.292Z,59.20
2018-01-24T04:10:59.127Z,59.20
2018-01-24T04:13:26.939Z,59.50
2018-01-24T04:15:54.785Z,59.10
2018-01-24T04:18:22.626Z,58.80
2018-01-24T04:20:50.456Z,58.60
2018-01-24T04:23:18.238Z,58.60
2018-01-24T04:25:46.780Z,58.90
2018-01-24T04:28:14.637Z,58.90
2018-01-24T04:30:42.453Z,59.00
2018-01-24T04:33:10.241Z,59.10
2018-01-24T04:35:38.022Z,59.00
2018-01-24T04:38:05.883Z,59.10
2018-01-24T04:40:33.787Z,58.70
2018-01-24T04:43:01.615Z,58.60
2018-01-24T04:45:29.520Z,58.50
2018-01-24T04:47:57.299Z,58.60
2018-01-24T04:50:25.971Z,58.70
2018-01-24T04:52:53.919Z,58.70
2018-01-24T04:55:21.703Z,58.70
2018-01-24T04:57:49.703Z,58.60
2018-01-24T05:00:17.588Z,58.70
2018-01-24T05:02:45.539Z,58.80
2018-01-24T05:05:13.531Z,58.80
2018-01-24T05:07:41.443Z,58.90
2018-01-24T05:10:09.370Z,59.00
2018-01-24T05:12:37.259Z,59.00
2018-01-24T05:15:06.046Z,59.20
2018-01-24T05:17:33.856Z,59.30
2018-01-24T05:20:02.499Z,59.40
2018-01-24T05:22:30.472Z,59.40
2018-01-24T05:24:58.269Z,59.50
2018-01-24T05:27:26.820Z,59.40
2018-01-24T05:29:54.656Z,59.40
2018-01-24T05:32:22.451Z,59.50
2018-01-24T05:34:50.248Z,59.40
2018-01-24T05:37:18.884Z,59.40
2018-01-24T05:39:46.698Z,59.40
2018-01-24T05:42:15.289Z,59.30
2018-01-24T05:44:43.150Z,59.20
2018-01-24T05:47:10.966Z,59.30
2018-01-24T05:49:38.743Z,59.40
2018-01-24T05:52:06.580Z,59.20
2018-01-24T05:54:34.466Z,59.20
2018-01-24T05:57:02.242Z,59.10
2018-01-24T05:59:30.047Z,59.20
2018-01-24T06:01:57.835Z,59.20
2018-01-24T06:04:25.632Z,59.20
2018-01-24T06:06:53.589Z,59.30
2018-01-24T06:09:21.359Z,59.20
2018-01-24T06:11:49.155Z,59.00
2018-01-24T06:14:17.701Z,59.10
2018-01-24T06:16:45.485Z,59.00
2018-01-24T06:19:14.292Z,58.90
2018-01-24T06:21:42.929Z,59.50
2018-01-24T06:24:10.730Z,59.50
2018-01-24T06:26:39.338Z,60.10
2018-01-24T06:29:07.197Z,59.70
2018-01-24T06:31:35.734Z,59.80
2018-01-24T06:34:03.951Z,59.80
2018-01-24T06:36:32.573Z,60.00
2018-01-24T06:39:00.384Z,59.90
2018-01-24T06:41:28.932Z,60.40
2018-01-24T06:43:56.699Z,60.30
2018-01-24T06:46:24.473Z,60.20
2018-01-24T06:48:52.284Z,59.90
2018-01-24T06:51:20.103Z,59.70
2018-01-24T06:53:47.903Z,59.50
2018-01-24T06:56:16.443Z,59.40
2018-01-24T06:58:44.333Z,59.40
2018-01-24T07:01:12.118Z,59.60
2018-01-24T07:03:40.667Z,59.30
2018-01-24T07:06:08.530Z,59.30
2018-01-24T07:08:36.322Z,59.20
2018-01-24T07:11:04.185Z,59.80
2018-01-24T07:13:44.546Z,59.10
2018-01-24T07:16:13.130Z,59.10
2018-01-24T07:18:41.655Z,59.10
2018-01-24T07:21:09.512Z,58.90
2018-01-24T07:23:37.311Z,58.80
2018-01-24T07:26:05.129Z,58.70
2018-01-24T07:28:32.937Z,58.70
2018-01-24T07:31:00.783Z,58.30
2018-01-24T07:33:28.627Z,57.60
2018-01-24T07:35:56.529Z,57.40
2018-01-24T07:38:24.435Z,57.20
2018-01-24T07:40:52.215Z,56.40
2018-01-24T07:43:20.064Z,55.40
2018-01-24T07:45:47.903Z,54.80
2018-01-24T07:48:15.688Z,54.40
2018-01-24T07:50:43.507Z,54.30
2018-01-24T07:53:11.285Z,53.40
2018-01-24T07:55:39.162Z,52.80
2018-01-24T07:58:07.125Z,52.20
2018-01-24T08:00:35.073Z,52.30
2018-01-24T08:03:02.867Z,52.10
2018-01-24T08:05:30.655Z,52.50
2018-01-24T08:07:59.314Z,52.30
2018-01-24T08:10:27.250Z,52.20
2018-01-24T08:12:55.137Z,52.00
2018-01-24T08:15:22.988Z,51.50
2018-01-24T08:17:50.852Z,51.70
2018-01-24T08:20:18.787Z,52.20
2018-01-24T08:22:47.417Z,55.00
2018-01-24T08:25:15.239Z,55.00
2018-01-24T08:27:43.878Z,56.30
2018-01-24T08:30:11.743Z,56.30
2018-01-24T08:32:40.440Z,57.00
2018-01-24T08:35:08.220Z,57.20
2018-01-24T08:37:36.071Z,57.20
2018-01-24T08:40:04.005Z,57.60
2018-01-24T08:42:31.827Z,57.70
2018-01-24T08:45:01.568Z,58.70
2018-01-24T08:47:29.576Z,58.70
2018-01-24T08:49:57.391Z,59.10
2018-01-24T08:52:25.283Z,59.50
2018-01-24T08:54:53.104Z,59.70
2018-01-24T08:57:21.818Z,60.00
2018-01-24T08:59:49.676Z,59.90
2018-01-24T09:02:17.512Z,60.10
2018-01-24T09:04:45.292Z,60.60
2018-01-24T09:07:13.919Z,60.70
2018-01-24T09:09:41.778Z,60.70
2018-01-24T09:12:09.565Z,60.80
2018-01-24T09:14:37.675Z,60.60
2018-01-24T09:17:06.288Z,60.20
2018-01-24T09:19:34.103Z,60.10
2018-01-24T09:22:02.948Z,59.80
2018-01-24T09:24:30.925Z,59.30
2018-01-24T09:26:58.804Z,59.40
2018-01-24T09:29:26.580Z,59.30
2018-01-24T09:31:57.504Z,58.80
2018-01-24T09:34:25.285Z,58.80
2018-01-24T09:36:53.099Z,58.90
2018-01-24T09:39:20.880Z,58.80
2018-01-24T09:41:48.711Z,58.60
2018-01-24T09:44:16.660Z,57.90
2018-01-24T09:46:44.473Z,57.80
2018-01-24T09:49:12.331Z,57.40
2018-01-24T09:51:40.265Z,57.30
2018-01-24T09:54:08.103Z,56.90
2018-01-24T09:56:35.944Z,56.90
2018-01-24T09:59:03.747Z,56.30
2018-01-24T10:01:31.519Z,56.00
2018-01-24T10:03:59.311Z,55.80
2018-01-24T10:06:27.210Z,55.90
2018-01-24T10:08:55.063Z,55.50
2018-01-24T10:11:23.060Z,54.90
2018-01-24T10:13:50.894Z,54.80
2018-01-24T10:16:18.741Z,55.10
2018-01-24T10:18:47.323Z,54.80
2018-01-24T10:21:15.933Z,55.50
2018-01-24T10:23:44.688Z,55.50
2018-01-24T10:26:13.424Z,55.90
2018-01-24T10:28:41.272Z,55.90
2018-01-24T10:31:09.257Z,55.40
2018-01-24T10:33:37.037Z,54.70
2018-01-24T10:36:04.806Z,53.60
2018-01-24T10:38:32.698Z,53.00
2018-01-24T10:41:01.316Z,53.30
2018-01-24T10:43:29.085Z,53.20
2018-01-24T10:45:57.215Z,53.10
2018-01-24T10:48:24.997Z,53.30
2018-01-24T10:50:53.595Z,51.90
2018-01-24T10:53:21.365Z,51.90
2018-01-24T10:55:49.223Z,51.90
2018-01-24T10:58:17.085Z,50.80
2018-01-24T11:00:44.876Z,50.90
2018-01-24T11:03:12.756Z,51.50
2018-01-24T11:05:40.662Z,52.00
2018-01-24T11:08:09.444Z,52.70
2018-01-24T11:10:37.216Z,52.70
2018-01-24T11:13:05.756Z,52.90
2018-01-24T11:15:33.758Z,52.90
2018-01-24T11:18:02.323Z,53.20
2018-01-24T11:20:30.117Z,53.10
2018-01-24T11:22:58.742Z,53.90
2018-01-24T11:25:26.639Z,53.80
2018-01-24T11:27:54.586Z,53.50
2018-01-24T11:30:22.480Z,53.70
2018-01-24T11:32:50.288Z,54.00
2018-01-24T11:35:18.211Z,53.70
2018-01-24T11:37:46.031Z,53.70
2018-01-24T11:40:14.136Z,53.90
2018-01-24T11:42:42.065Z,53.70
2018-01-24T11:45:09.875Z,53.90
2018-01-24T11:47:37.688Z,53.80
2018-01-24T11:50:05.549Z,53.50
2018-01-24T11:52:34.148Z,52.70
2018-01-24T11:55:01.978Z,52.70
2018-01-24T11:57:30.559Z,53.60
2018-01-24T11:59:58.367Z,53.60
2018-01-24T12:02:26.805Z,53.80
2018-01-24T12:04:54.639Z,54.40
2018-01-24T12:07:22.453Z,54.70
2018-01-24T12:09:51.039Z,54.80
2018-01-24T12:12:19.570Z,54.80
2018-01-24T12:14:47.403Z,54.70
2018-01-24T12:17:15.221Z,54.60
2018-01-24T12:19:44.315Z,55.00
2018-01-24T12:22:12.159Z,56.10
2018-01-24T12:24:39.989Z,57.00
2018-01-24T12:27:07.805Z,57.70
2018-01-24T12:29:35.608Z,58.20
2018-01-24T12:32:03.463Z,58.50
2018-01-24T12:34:32.135Z,59.60
2018-01-24T12:36:59.932Z,59.50
2018-01-24T12:39:27.702Z,60.20
2018-01-24T12:41:55.564Z,60.00
2018-01-24T12:44:24.413Z,60.20
2018-01-24T12:46:52.208Z,60.30
2018-01-24T12:49:20.117Z,60.80
2018-01-24T12:51:47.932Z,61.20
2018-01-24T12:54:16.487Z,61.80
2018-01-24T12:56:44.274Z,61.80
2018-01-24T12:59:12.887Z,62.10
2018-01-24T13:01:40.668Z,62.00
2018-01-24T13:04:08.476Z,62.00
2018-01-24T13:06:36.276Z,61.90
2018-01-24T13:09:05.059Z,62.20
2018-01-24T13:11:32.969Z,62.40
2018-01-24T13:14:00.816Z,62.80
2018-01-24T13:16:28.617Z,63.50
2018-01-24T13:18:56.407Z,62.70
2018-01-24T13:21:25.127Z,63.10
2018-01-24T13:23:53.076Z,63.10
2018-01-24T13:26:20.896Z,62.90
2018-01-24T13:28:48.841Z,62.80
2018-01-24T13:31:16.633Z,63.10
2018-01-24T13:33:44.411Z,63.30
2018-01-24T13:36:12.271Z,63.40
2018-01-24T13:38:40.111Z,63.60
2018-01-24T13:41:07.912Z,64.20
2018-01-24T13:43:36.510Z,64.20
2018-01-24T13:46:05.104Z,64.20
2018-01-24T13:48:32.939Z,64.10
2018-01-24T13:51:01.604Z,65.30
2018-01-24T13:53:30.192Z,64.80
2018-01-24T13:55:57.974Z,64.80
2018-01-24T13:58:26.530Z,65.30
2018-01-24T14:00:54.302Z,65.40
2018-01-24T14:03:22.104Z,65.30
2018-01-24T14:05:49.903Z,65.20
2018-01-24T14:08:17.782Z,65.10
2018-01-24T14:10:45.611Z,65.10
2018-01-24T14:13:13.441Z,65.40
2018-01-24T14:15:41.235Z,65.60
2018-01-24T14:18:09.083Z,65.60
2018-01-24T14:20:37.653Z,65.80
2018-01-24T14:23:05.468Z,65.80
2018-01-24T14:25:33.565Z,66.90
2018-01-24T14:28:01.335Z,66.00
2018-01-24T14:30:29.107Z,65.60
2018-01-24T14:32:56.897Z,65.40
2018-01-24T14:35:25.524Z,65.70
2018-01-24T14:37:53.319Z,65.70
2018-01-24T14:40:21.164Z,65.90
2018-01-24T14:42:48.991Z,66.00
2018-01-24T14:45:17.615Z,65.90
2018-01-24T14:47:45.423Z,66.00
2018-01-24T14:50:13.977Z,66.00
2018-01-24T14:52:41.793Z,66.00
2018-01-24T14:55:09.595Z,66.10
2018-01-24T14:57:37.434Z,66.20
2018-01-24T15:00:05.426Z,66.30
2018-01-24T15:02:33.233Z,66.50
2018-01-24T15:05:02.523Z,66.80
2018-01-24T15:07:30.299Z,66.80
2018-01-24T15:09:58.849Z,67.30
2018-01-24T15:12:26.616Z,67.30
2018-01-24T15:14:54.445Z,67.40
2018-01-24T15:17:22.281Z,67.30
2018-01-24T15:19:50.051Z,67.50
2018-01-24T15:22:18.713Z,67.60
2018-01-24T15:24:47.267Z,67.70
2018-01-24T15:27:15.088Z,67.70
2018-01-24T15:29:42.997Z,68.00
2018-01-24T15:32:10.799Z,68.30
2018-01-24T15:34:39.380Z,68.50
2018-01-24T15:37:07.196Z,68.20
2018-01-24T15:39:35.006Z,68.50
2018-01-24T15:42:02.843Z,68.60
2018-01-24T15:44:30.685Z,68.50
2018-01-24T15:46:58.483Z,68.60
2018-01-24T15:49:26.254Z,68.80
2018-01-24T15:51:55.048Z,69.00
2018-01-24T15:54:22.974Z,69.20
2018-01-24T15:56:50.870Z,69.20
2018-01-24T15:59:18.683Z,69.30
2018-01-24T16:01:48.118Z,68.90
2018-01-24T16:04:15.914Z,68.90
2018-01-24T16:06:43.712Z,69.30
2018-01-24T16:09:11.536Z,69.30
2018-01-24T16:11:39.310Z,69.40
2018-01-24T16:14:07.112Z,69.50
2018-01-24T16:16:34.921Z,69.60
2018-01-24T16:19:02.744Z,69.80
2018-01-24T16:21:30.576Z,69.80
2018-01-24T16:23:58.442Z,69.90
2018-01-24T16:26:26.263Z,69.80
2018-01-24T16:28:54.038Z,69.80
2018-01-24T16:31:21.880Z,69.70
2018-01-24T16:33:50.905Z,69.90
2018-01-24T16:36:18.946Z,69.90
2018-01-24T16:38:46.707Z,69.90
2018-01-24T16:41:14.524Z,70.40
2018-01-24T16:43:42.970Z,69.60
2018-01-24T16:46:10.881Z,69.70
2018-01-24T16:48:39.362Z,69.90
2018-01-24T16:51:07.192Z,69.70
2018-01-24T16:53:35.030Z,69.80
2018-01-24T16:56:02.902Z,69.90
2018-01-24T16:58:30.711Z,70.10
2018-01-24T17:00:59.344Z,70.10
2018-01-24T17:03:27.160Z,70.10
2018-01-24T17:05:55.483Z,70.80
2018-01-24T17:08:23.349Z,70.20
2018-01-24T17:10:51.121Z,70.20
2018-01-24T17:13:18.887Z,70.30
2018-01-24T17:15:46.703Z,70.20
2018-01-24T17:18:14.584Z,70.30
2018-01-24T17:20:43.165Z,70.30
2018-01-24T17:23:11.724Z,70.50
2018-01-24T17:25:39.494Z,70.40
2018-01-24T17:28:07.356Z,70.50
2018-01-24T17:30:38.844Z,70.20
2018-01-24T17:33:06.686Z,70.30
2018-01-24T17:35:34.534Z,70.50
2018-01-24T17:38:02.352Z,70.70
2018-01-24T17:40:30.148Z,70.50
2018-01-24T17:42:58.724Z,70.50
2018-01-24T17:45:26.536Z,70.60
2018-01-24T17:47:54.298Z,70.40
2018-01-24T17:50:22.219Z,70.30
2018-01-24T17:52:50.038Z,70.40
2018-01-24T17:55:17.844Z,70.70
2018-01-24T17:57:45.894Z,70.60
2018-01-24T18:00:13.740Z,70.60
2018-01-24T18:02:41.599Z,70.60
2018-01-24T18:05:09.419Z,70.70
2018-01-24T18:07:38.021Z,70.40
2018-01-24T18:10:05.961Z,70.40
2018-01-24T18:12:33.798Z,70.60
2018-01-24T18:15:01.628Z,71.30
2018-01-24T18:17:29.457Z,70.60
2018-01-24T18:19:57.291Z,70.60
2018-01-24T18:22:25.078Z,70.60
2018-01-24T18:24:52.903Z,70.50
2018-01-24T18:27:20.703Z,70.70
2018-01-24T18:29:48.506Z,70.80
2018-01-24T18:32:16.301Z,70.70
2018-01-24T18:34:44.124Z,70.70
2018-01-24T18:37:11.963Z,70.60
2018-01-24T18:39:39.843Z,70.70
2018-01-24T18:42:07.632Z,70.90
2018-01-24T18:44:35.418Z,70.80
2018-01-24T18:47:03.235Z,71.00
2018-01-24T18:49:31.044Z,71.10
2018-01-24T18:51:58.889Z,71.10
2018-01-24T18:54:26.685Z,71.40
2018-01-24T18:56:54.530Z,71.50
2018-01-24T18:59:22.347Z,72.50
2018-01-24T19:01:50.140Z,72.60
2018-01-24T19:04:18.647Z,72.40
2018-01-24T19:06:46.516Z,72.20
2018-01-24T19:09:14.336Z,72.50
2018-01-24T19:11:42.176Z,73.20
2018-01-24T19:14:10.088Z,72.70
2018-01-24T19:16:38.026Z,72.40
2018-01-24T19:19:05.910Z,72.30
2018-01-24T19:21:33.815Z,73.10
2018-01-24T19:24:02.392Z,72.00
2018-01-24T19:26:30.251Z,72.70
2018-01-24T19:28:58.095Z,71.60
2018-01-24T19:31:25.899Z,71.30
2018-01-24T19:33:53.717Z,71.00
2018-01-24T19:36:21.583Z,70.70
2018-01-24T19:38:49.452Z,70.80
2018-01-24T19:41:17.235Z,71.00
2018-01-24T19:43:45.012Z,70.40
2018-01-24T19:46:12.889Z,70.50
2018-01-24T19:48:40.680Z,70.80
2018-01-24T19:51:09.229Z,70.50
2018-01-24T19:53:37.027Z,70.50
2018-01-24T19:56:04.909Z,70.40
2018-01-24T19:58:32.747Z,70.20
2018-01-24T20:01:01.348Z,70.10
2018-01-24T20:03:29.978Z,70.10
2018-01-24T20:05:57.847Z,70.10
2018-01-24T20:08:25.701Z,70.00
2018-01-24T20:10:53.513Z,70.10
2018-01-24T20:13:22.067Z,70.00
2018-01-24T20:15:49.871Z,69.90
2018-01-24T20:18:17.748Z,70.40
2018-01-24T20:20:45.722Z,69.80
2018-01-24T20:23:14.697Z,69.50
2018-01-24T20:25:42.499Z,69.50
2018-01-24T20:28:10.375Z,69.30
2018-01-24T20:30:39.423Z,69.30
2018-01-24T20:33:07.251Z,69.20
2018-01-24T20:35:35.147Z,69.10
2018-01-24T20:38:02.962Z,69.10
2018-01-24T20:40:33.298Z,69.10
2018-01-24T20:43:01.921Z,69.00
2018-01-24T20:45:29.742Z,68.90
2018-01-24T20:47:57.653Z,68.80
2018-01-24T20:50:26.257Z,68.80
2018-01-24T20:52:54.924Z,68.60
2018-01-24T20:55:25.931Z,68.60
2018-01-24T20:57:54.146Z,68.60
2018-01-24T21:00:22.587Z,68.60
2018-01-24T21:02:50.515Z,68.60
2018-01-24T21:05:18.365Z,68.60
2018-01-24T21:13:33.191Z,68.60
2018-01-24T21:16:01.066Z,68.70
2018-01-24T21:18:29.203Z,68.60
2018-01-24T21:20:57.073Z,69.30
2018-01-24T21:23:24.935Z,69.40
2018-01-24T21:25:52.764Z,68.70
2018-01-24T21:28:32.394Z,68.70
2018-01-24T21:31:12.048Z,68.80
2018-01-24T21:33:56.566Z,68.70
2018-01-24T21:36:33.267Z,68.70
2018-01-24T21:39:01.108Z,68.60
2018-01-24T21:41:28.982Z,68.50
2018-01-24T21:43:57.631Z,68.50
2018-01-24T21:46:25.683Z,68.50
2018-01-24T21:48:54.274Z,68.60
2018-01-24T21:51:22.115Z,68.40
2018-01-24T21:53:49.921Z,68.50
2018-01-24T21:56:18.500Z,68.60
2018-01-24T21:58:46.285Z,68.60
2018-01-24T23:55:27.407Z,69.80
2018-01-24T23:57:55.183Z,70.00
